Time;durP1;ratioP1;P1;durP2;ratioP2;P2;SDS_P1;SDS_P2;PMS_P1;PMS_P2;Temp;Humidity;BMP_temperature;BMP_pressure;BME280_temperature;BME280_humidity;BME280_pressure;Samples;Min_cycle;Max_cycle;Signal;HPM_P1;HPM_P2
2022/03/21 00:01:18;;;;;;;;;;;;;;;6.79;70.37;103129.56;6221370;23;1271;-96
2022/03/21 00:03:46;;;;;;;;;;;;;;;6.75;70.68;103125.47;6220563;23;1293;-96
2022/03/21 00:06:13;;;;;;;;;;;;;;;6.74;70.39;103131.81;6222077;23;1948;-96
2022/03/21 00:08:40;;;;;;;;;;;;;;;6.73;70.57;103127.41;6220596;23;1318;-96
2022/03/21 00:11:07;;;;;;;;;;;;;;;6.71;70.58;103122.22;6221884;23;1188;-96
2022/03/21 00:13:35;;;;;;;;;;;;;;;6.71;70.49;103127.56;6221319;23;1424;-96
2022/03/21 00:16:02;;;;;;;;;;;;;;;6.69;70.30;103120.63;6221187;23;1160;-96
2022/03/21 00:18:29;;;;;;;;;;;;;;;6.67;70.59;103118.06;6222181;23;1317;-96
2022/03/21 00:20:56;;;;;;;;;;;;;;;6.66;70.33;103115.56;6220592;23;1325;-96
2022/03/21 00:23:23;;;;;;;;;;;;;;;6.64;70.25;103114.81;6221581;23;1266;-96
2022/03/21 00:25:49;;;;;;;;;;;;;;;6.60;70.54;103109.72;6220774;23;1179;-96
2022/03/21 00:28:16;;;;;;;;;;;;;;;6.60;70.53;103108.88;6220512;23;1909;-96
2022/03/21 00:30:43;;;;;;;;;;;;;;;6.58;70.54;103103.66;6221872;23;1374;-96
2022/03/21 00:33:11;;;;;;;;;;;;;;;6.57;70.06;103101.97;6220663;23;1283;-96
2022/03/21 00:35:37;;;;;;;;;;;;;;;6.55;70.26;103095.88;6221998;23;1207;-96
2022/03/21 00:38:04;;;;;;;;;;;;;;;6.54;70.16;103091.50;6220702;23;1337;-96
2022/03/21 00:40:30;;;;;;;;;;;;;;;6.52;70.08;103093.47;6220873;23;1273;-96
2022/03/21 00:42:58;;;;;;;;;;;;;;;6.51;70.25;103089.09;6221112;23;1192;-96
2022/03/21 00:45:25;;;;;;;;;;;;;;;6.48;69.93;103086.69;6220741;23;1331;-96
2022/03/21 00:47:52;;;;;;;;;;;;;;;6.47;70.41;103084.13;6221520;23;1900;-96
2022/03/21 00:50:18;;;;;;;;;;;;;;;6.46;70.40;103085.13;6219967;23;1171;-96
2022/03/21 00:52:45;;;;;;;;;;;;;;;6.45;70.05;103078.91;6221441;23;1175;-96
2022/03/21 00:55:11;;;;;;;;;;;;;;;6.43;70.12;103077.34;6221010;23;1222;-96
2022/03/21 00:57:40;;;;;;;;;;;;;;;6.42;69.96;103075.66;6220135;23;1213;-96
2022/03/21 01:00:08;;;;;;;;;;;;;;;6.41;70.27;103076.63;6221381;23;1267;-96
2022/03/21 01:02:34;;;;;;;;;;;;;;;6.40;70.17;103074.94;6220444;23;1069;-96
2022/03/21 01:05:01;;;;;;;;;;;;;;;6.37;69.97;103073.34;6221995;23;1299;-96
2022/03/21 01:07:28;;;;;;;;;;;;;;;6.36;70.27;103071.69;6220262;23;1922;-96
2022/03/21 01:09:55;;;;;;;;;;;;;;;6.34;70.06;103078.97;6220560;23;1294;-96
2022/03/21 01:12:21;;;;;;;;;;;;;;;6.33;70.15;103074.63;6221191;23;1219;-96
2022/03/21 01:14:48;;;;;;;;;;;;;;;6.30;69.82;103070.38;6220641;23;1417;-96
2022/03/21 01:17:15;;;;;;;;;;;;;;;6.28;70.22;103069.63;6221791;23;1159;-96
2022/03/21 01:19:42;;;;;;;;;;;;;;;6.26;70.25;103062.72;6222320;23;1179;-96
2022/03/21 01:22:08;;;;;;;;;;;;;;;6.25;69.78;103058.34;6222680;23;1306;-96
2022/03/21 01:24:37;;;;;;;;;;;;;;;6.23;69.87;103058.47;6222905;23;1355;-96
2022/03/21 01:27:06;;;;;;;;;;;;;;;6.22;70.01;103058.59;6221724;23;1900;-96
2022/03/21 01:29:33;;;;;;;;;;;;;;;6.20;70.07;103058.72;6223949;23;1341;-96
2022/03/21 01:31:59;;;;;;;;;;;;;;;6.20;69.79;103057.88;6222013;23;1173;-96
2022/03/21 01:34:26;;;;;;;;;;;;;;;6.18;69.86;103055.34;6222337;23;1295;-96
2022/03/21 01:36:52;;;;;;;;;;;;;;;6.14;69.73;103057.41;6223433;23;1312;-96
2022/03/21 01:39:19;;;;;;;;;;;;;;;6.14;69.82;103053.91;6222514;23;1261;-96
2022/03/21 01:41:46;;;;;;;;;;;;;;;6.12;69.77;103048.69;6223328;23;1282;-96
2022/03/21 01:44:12;;;;;;;;;;;;;;;6.11;69.79;103051.47;6221867;23;1175;-96
2022/03/21 01:46:39;;;;;;;;;;;;;;;6.10;69.74;103058.66;6222416;23;1900;-96
2022/03/21 01:49:05;;;;;;;;;;;;;;;6.09;69.72;103050.78;6222784;23;1183;-96
2022/03/21 01:51:32;;;;;;;;;;;;;;;6.07;69.65;103048.22;6221884;23;1250;-96
2022/03/21 01:56:43;;;;;;;;;;;;;;;6.03;69.78;103044.13;6221672;23;1248;-96
2022/03/21 01:59:09;;;;;;;;;;;;;;;6.03;69.99;103037.88;6222073;23;1135;-96
2022/03/21 02:01:36;;;;;;;;;;;;;;;6.01;69.65;103034.53;6222937;23;1274;-96
2022/03/21 02:04:03;;;;;;;;;;;;;;;6.01;69.78;103030.00;6221623;23;1255;-96
2022/03/21 02:06:29;;;;;;;;;;;;;;;5.99;69.48;103026.59;6222877;23;1908;-96
2022/03/21 02:08:56;;;;;;;;;;;;;;;5.97;69.49;103025.03;6221447;23;1369;-96
2022/03/21 02:11:22;;;;;;;;;;;;;;;5.95;69.71;103027.00;6222637;23;1247;-96
2022/03/21 02:13:48;;;;;;;;;;;;;;;5.94;69.79;103026.13;6217138;23;1337;-96
2022/03/21 02:16:15;;;;;;;;;;;;;;;5.92;69.84;103020.06;6216870;23;1186;-96
2022/03/21 02:18:42;;;;;;;;;;;;;;;5.93;69.74;103021.78;6217546;23;1391;-96
2022/03/21 02:21:08;;;;;;;;;;;;;;;5.92;69.66;103017.38;6216421;23;1270;-96
2022/03/21 02:23:35;;;;;;;;;;;;;;;5.90;69.57;103022.00;6216953;23;1398;-96
2022/03/21 02:26:02;;;;;;;;;;;;;;;5.89;69.65;103023.00;6215816;23;1175;-96
2022/03/21 02:28:29;;;;;;;;;;;;;;;5.86;69.53;103016.06;6216148;23;1904;-96
2022/03/21 02:30:56;;;;;;;;;;;;;;;5.85;69.44;103016.19;6217124;23;1301;-96
2022/03/21 02:33:23;;;;;;;;;;;;;;;5.83;69.36;103016.31;6216509;23;1167;-96
2022/03/21 02:35:49;;;;;;;;;;;;;;;5.81;69.67;103014.75;6217497;23;1351;-96
2022/03/21 02:38:15;;;;;;;;;;;;;;;5.80;69.51;103007.72;6216316;23;1167;-96
2022/03/21 02:40:42;;;;;;;;;;;;;;;5.78;69.47;103007.84;6216011;23;1278;-96
2022/03/21 02:43:09;;;;;;;;;;;;;;;5.77;69.45;103003.47;6217305;23;1241;-96
2022/03/21 02:45:36;;;;;;;;;;;;;;;5.78;69.36;103017.69;6215525;23;1414;-96
2022/03/21 02:48:02;;;;;;;;;;;;;;;5.76;69.41;103014.28;6216806;23;1908;-96
2022/03/21 02:50:30;;;;;;;;;;;;;;;5.74;69.39;103010.91;6215574;23;1175;-96
2022/03/21 02:52:56;;;;;;;;;;;;;;;5.72;69.41;103018.19;6217229;23;1159;-96
2022/03/21 02:55:23;;;;;;;;;;;;;;;5.69;69.43;103013.94;6216307;23;1198;-96
2022/03/21 02:57:49;;;;;;;;;;;;;;;5.70;69.40;103010.28;6215915;23;1182;-96
2022/03/21 03:00:17;;;;;;;;;;;;;;;5.68;69.08;102998.91;6216412;23;1167;-96
2022/03/21 03:02:44;;;;;;;;;;;;;;;5.67;69.18;103006.03;6216254;23;1214;-96
2022/03/21 03:05:10;;;;;;;;;;;;;;;5.66;69.24;103011.53;6217667;23;1282;-96
2022/03/21 03:07:37;;;;;;;;;;;;;;;5.63;69.31;103007.28;6215463;23;1936;-96
2022/03/21 03:10:04;;;;;;;;;;;;;;;5.61;69.18;103001.22;6215986;23;1255;-96
2022/03/21 03:12:30;;;;;;;;;;;;;;;5.61;69.13;103000.38;6216741;23;1320;-96
2022/03/21 03:14:57;;;;;;;;;;;;;;;5.59;69.36;102997.84;6215922;23;1306;-96
2022/03/21 03:17:23;;;;;;;;;;;;;;;5.58;69.11;103000.63;6216310;23;1173;-96
2022/03/21 03:19:50;;;;;;;;;;;;;;;5.56;69.11;102987.41;6215457;23;1266;-96
2022/03/21 03:22:17;;;;;;;;;;;;;;;5.55;69.08;102988.34;6216214;23;1167;-96
2022/03/21 03:24:43;;;;;;;;;;;;;;;5.54;69.21;102981.31;6216881;23;1380;-96
2022/03/21 03:27:10;;;;;;;;;;;;;;;5.52;69.12;102983.25;6215933;23;1905;-96
2022/03/21 03:29:36;;;;;;;;;;;;;;;5.51;69.14;102986.91;6217193;23;1294;-96
2022/03/21 03:32:03;;;;;;;;;;;;;;;5.49;69.04;102985.34;6214930;23;1469;-96
2022/03/21 03:34:30;;;;;;;;;;;;;;;5.49;69.03;102996.03;6216177;23;1247;-96
2022/03/21 03:36:56;;;;;;;;;;;;;;;5.46;68.94;102983.78;6216325;23;1155;-96
2022/03/21 03:39:23;;;;;;;;;;;;;;;5.46;69.14;102983.78;6215205;23;1196;-96
2022/03/21 03:41:49;;;;;;;;;;;;;;;5.44;68.84;102975.91;6217265;23;1364;-96
2022/03/21 03:44:17;;;;;;;;;;;;;;;5.40;69.14;102977.09;6215744;23;1281;-96
2022/03/21 03:46:44;;;;;;;;;;;;;;;5.39;69.05;102982.59;6216340;23;1938;-96
2022/03/21 03:49:11;;;;;;;;;;;;;;;5.38;69.00;102970.19;6215601;23;1187;-96
2022/03/21 03:51:37;;;;;;;;;;;;;;;5.38;69.07;102973.72;6215032;23;1282;-96
2022/03/21 03:54:04;;;;;;;;;;;;;;;5.37;68.98;102957.81;6217011;23;1385;-96
2022/03/21 03:56:30;;;;;;;;;;;;;;;5.36;68.98;102966.81;6215042;23;1417;-96
2022/03/21 03:58:57;;;;;;;;;;;;;;;5.32;68.92;102960.84;6217229;23;1286;-96
2022/03/21 04:01:23;;;;;;;;;;;;;;;5.31;69.03;102967.19;6215027;23;1336;-96
2022/03/21 04:03:50;;;;;;;;;;;;;;;5.29;68.72;102963.78;6215704;23;1273;-96
2022/03/21 04:06:16;;;;;;;;;;;;;;;5.29;68.79;102969.13;6215241;23;1353;-96
2022/03/21 04:08:43;;;;;;;;;;;;;;;5.27;69.02;102968.41;6215463;23;1940;-96
2022/03/21 04:11:10;;;;;;;;;;;;;;;5.25;68.88;102965.00;6215927;23;1345;-96
2022/03/21 04:13:36;;;;;;;;;;;;;;;5.24;68.79;102974.00;6214708;23;1332;-96
2022/03/21 04:16:03;;;;;;;;;;;;;;;5.22;68.80;102974.13;6216049;23;1364;-96
2022/03/21 04:18:30;;;;;;;;;;;;;;;5.21;68.90;102975.13;6215996;23;1308;-96
2022/03/21 04:20:57;;;;;;;;;;;;;;;5.21;68.71;102971.59;6215176;23;1280;-96
2022/03/21 04:23:24;;;;;;;;;;;;;;;5.19;68.74;102965.53;6215399;23;1282;-96
2022/03/21 04:25:51;;;;;;;;;;;;;;;5.16;68.64;102966.63;6215161;23;1167;-96
2022/03/21 04:28:18;;;;;;;;;;;;;;;5.15;68.64;102975.63;6215952;23;1949;-96
2022/03/21 04:30:45;;;;;;;;;;;;;;;5.14;68.69;102971.22;6214998;23;1270;-96
2022/03/21 04:33:12;;;;;;;;;;;;;;;5.13;68.67;102974.88;6215659;23;1174;-96
2022/03/21 04:35:38;;;;;;;;;;;;;;;5.12;68.51;102967.00;6216472;23;1264;-96
2022/03/21 04:38:12;;;;;;;;;;;;;;;5.11;68.51;102976.81;6215730;23;1282;-96
2022/03/21 04:40:39;;;;;;;;;;;;;;;5.09;68.75;102989.47;6216377;23;1339;-96
2022/03/21 04:43:06;;;;;;;;;;;;;;;5.07;68.84;102980.72;6215175;23;1278;-96
2022/03/21 04:45:32;;;;;;;;;;;;;;;5.07;68.84;102986.06;6215530;23;1178;-96
2022/03/21 04:47:59;;;;;;;;;;;;;;;5.06;68.71;102989.72;6216309;23;1936;-96
2022/03/21 04:50:25;;;;;;;;;;;;;;;5.03;68.79;102984.63;6215045;23;1325;-96
2022/03/21 04:52:52;;;;;;;;;;;;;;;5.01;68.68;102983.91;6217805;23;1254;-96
2022/03/21 04:55:19;;;;;;;;;;;;;;;5.00;68.63;102974.19;6217172;23;1199;-96
2022/03/21 04:57:46;;;;;;;;;;;;;;;4.99;68.64;102981.34;6217912;23;1198;-96
2022/03/21 05:00:13;;;;;;;;;;;;;;;4.97;68.59;102977.97;6217999;23;1155;-96
2022/03/21 05:02:39;;;;;;;;;;;;;;;4.96;68.66;102980.75;6217604;23;1199;-96
2022/03/21 05:05:06;;;;;;;;;;;;;;;4.94;68.60;102980.88;6218648;23;1326;-96
2022/03/21 05:07:32;;;;;;;;;;;;;;;4.93;68.71;102970.31;6216780;23;1947;-96
2022/03/21 05:09:59;;;;;;;;;;;;;;;4.92;68.53;102973.97;6218524;23;1284;-96
2022/03/21 05:12:25;;;;;;;;;;;;;;;4.90;68.70;102975.91;6220278;23;1359;-96
2022/03/21 05:14:51;;;;;;;;;;;;;;;4.91;68.53;102980.25;6222146;23;1199;-96
2022/03/21 05:17:18;;;;;;;;;;;;;;;4.89;68.47;102972.38;6222822;23;1368;-96
2022/03/21 05:19:45;;;;;;;;;;;;;;;4.86;68.57;102977.97;6222248;23;1292;-96
2022/03/21 05:22:11;;;;;;;;;;;;;;;4.86;68.47;102975.31;6223748;23;1394;-96
2022/03/21 05:35:52;;;;;;;;;;;;;;;4.81;68.58;102981.97;6221565;23;1400;-96
2022/03/21 05:38:22;;;;;;;;;;;;;;;4.75;68.58;102986.81;6222738;23;1256;-96
2022/03/21 05:40:49;;;;;;;;;;;;;;;4.75;68.62;102991.31;6222158;23;1156;-96
2022/03/21 05:43:16;;;;;;;;;;;;;;;4.72;68.51;102996.91;6223341;23;1277;-96
2022/03/21 05:45:42;;;;;;;;;;;;;;;4.72;68.42;103002.25;6221728;23;1379;-96
2022/03/21 05:50:53;;;;;;;;;;;;;;;4.70;68.36;102989.00;6222665;23;1267;-96
2022/03/21 05:53:19;;;;;;;;;;;;;;;4.67;68.42;102986.56;6248751;23;969;-96
2022/03/21 05:55:46;;;;;;;;;;;;;;;4.65;68.35;102991.22;6222990;23;1279;-96
2022/03/21 05:58:13;;;;;;;;;;;;;;;4.66;68.22;103000.06;6221355;23;1270;-96
2022/03/21 06:00:39;;;;;;;;;;;;;;;4.63;68.45;102994.97;6221594;23;1198;-96
2022/03/21 06:03:08;;;;;;;;;;;;;;;4.62;68.18;102994.13;6221303;23;1195;-96
2022/03/21 06:05:34;;;;;;;;;;;;;;;4.61;68.45;102997.75;6222069;23;1258;-96
2022/03/21 06:08:01;;;;;;;;;;;;;;;4.59;68.32;102993.50;6223098;23;1950;-96
2022/03/21 06:10:29;;;;;;;;;;;;;;;4.60;68.47;102995.22;6221177;23;1212;-96
2022/03/21 06:12:55;;;;;;;;;;;;;;;4.59;68.32;102996.16;6221843;23;1109;-96
2022/03/21 06:15:22;;;;;;;;;;;;;;;4.59;68.05;103004.16;6221831;23;1176;-96
2022/03/21 06:17:48;;;;;;;;;;;;;;;4.56;68.31;103005.28;6221096;23;1296;-96
2022/03/21 06:20:15;;;;;;;;;;;;;;;4.55;68.17;102999.06;6223054;23;1272;-96
2022/03/21 06:22:42;;;;;;;;;;;;;;;4.55;68.12;103003.56;6248235;23;1016;-96
2022/03/21 06:25:09;;;;;;;;;;;;;;;4.53;68.12;103001.03;6221385;23;1295;-96
2022/03/21 06:27:37;;;;;;;;;;;;;;;4.55;68.12;103008.91;6222113;23;1904;-96
2022/03/21 06:30:04;;;;;;;;;;;;;;;4.53;68.14;103003.69;6221228;23;1283;-96
2022/03/21 06:32:30;;;;;;;;;;;;;;;4.53;67.97;103010.88;6222824;23;1278;-96
2022/03/21 06:34:57;;;;;;;;;;;;;;;4.53;67.94;102998.38;6220728;23;1256;-96
2022/03/21 06:37:23;;;;;;;;;;;;;;;4.53;68.06;103002.88;6221896;23;1184;-96
2022/03/21 06:39:50;;;;;;;;;;;;;;;4.52;67.86;102998.47;6219316;23;1377;-96
2022/03/21 06:42:17;;;;;;;;;;;;;;;4.52;67.87;103004.66;6221497;23;1112;-96
2022/03/21 06:44:43;;;;;;;;;;;;;;;4.53;67.81;103010.88;6222871;23;1369;-96
2022/03/21 06:47:10;;;;;;;;;;;;;;;4.52;67.79;103001.97;6220864;23;1188;-96
2022/03/21 06:49:36;;;;;;;;;;;;;;;4.54;67.60;103004.53;6223211;23;1909;-96
2022/03/21 06:52:05;;;;;;;;;;;;;;;4.52;67.74;102999.31;6220676;23;1304;-95
2022/03/21 06:54:32;;;;;;;;;;;;;;;4.51;67.81;103008.31;6221656;23;1268;-96
2022/03/21 06:56:58;;;;;;;;;;;;;;;4.53;67.56;103016.22;6221693;23;1144;-96
2022/03/21 06:59:25;;;;;;;;;;;;;;;4.52;67.56;103010.00;6221150;23;1370;-96
2022/03/21 07:01:51;;;;;;;;;;;;;;;4.52;67.57;102999.31;6220486;23;1278;-96
2022/03/21 07:04:18;;;;;;;;;;;;;;;4.52;67.48;103001.13;6221005;23;1287;-95
2022/03/21 07:06:44;;;;;;;;;;;;;;;4.51;67.51;102991.44;6248236;23;992;-96
2022/03/21 07:09:11;;;;;;;;;;;;;;;4.51;67.42;102996.78;6221889;23;1900;-96
2022/03/21 07:11:38;;;;;;;;;;;;;;;4.52;67.41;102999.31;6221641;23;1194;-96
2022/03/21 07:14:04;;;;;;;;;;;;;;;4.52;67.60;102999.31;6220288;23;1158;-96
2022/03/21 07:16:30;;;;;;;;;;;;;;;4.52;67.54;102999.31;6219876;23;1334;-95
2022/03/21 07:18:57;;;;;;;;;;;;;;;4.51;67.25;102999.44;6221140;23;1265;-96
2022/03/21 07:21:24;;;;;;;;;;;;;;;4.51;67.36;103002.97;6220500;23;1164;-95
2022/03/21 07:23:50;;;;;;;;;;;;;;;4.51;67.18;103004.78;6220408;23;1340;-95
2022/03/21 07:26:17;;;;;;;;;;;;;;;4.53;67.30;103009.03;6221842;23;1164;-96
2022/03/21 07:28:43;;;;;;;;;;;;;;;4.53;67.27;103009.03;6220049;23;1968;-95
2022/03/21 07:31:11;;;;;;;;;;;;;;;4.50;67.30;103003.06;6220932;23;1237;-95
2022/03/21 07:33:37;;;;;;;;;;;;;;;4.50;67.23;103005.75;6220654;23;1389;-95
2022/03/21 07:36:04;;;;;;;;;;;;;;;4.52;67.00;103009.16;6221418;23;1172;-95
2022/03/21 07:38:31;;;;;;;;;;;;;;;4.51;67.13;103018.97;6221703;23;1263;-95
2022/03/21 07:40:57;;;;;;;;;;;;;;;4.52;67.01;103009.16;6220663;23;1180;-95
2022/03/21 07:43:24;;;;;;;;;;;;;;;4.53;67.22;103013.53;6222230;23;1240;-95
2022/03/21 07:48:35;;;;;;;;;;;;;;;4.53;67.15;103008.19;6220658;23;1905;-96
2022/03/21 07:51:01;;;;;;;;;;;;;;;4.52;67.08;103006.47;6221603;23;1191;-95
2022/03/21 07:53:28;;;;;;;;;;;;;;;4.50;67.14;103006.63;6220823;23;1165;-95
2022/03/21 07:55:54;;;;;;;;;;;;;;;4.55;67.17;103000.91;6222271;23;1285;-96
2022/03/21 07:58:22;;;;;;;;;;;;;;;4.58;66.95;103006.00;6220603;23;1184;-95
2022/03/21 08:00:50;;;;;;;;;;;;;;;4.57;66.88;103006.97;6220359;23;1329;-96
2022/03/21 08:03:16;;;;;;;;;;;;;;;4.58;66.92;102995.31;6221278;23;1291;-96
2022/03/21 08:05:43;;;;;;;;;;;;;;;4.56;66.87;103005.28;6220494;23;1168;-93
2022/03/21 08:08:09;;;;;;;;;;;;;;;4.55;67.06;103004.41;6221681;23;1900;-96
2022/03/21 08:10:36;;;;;;;;;;;;;;;4.58;67.04;103011.34;6220715;23;1349;-96
2022/03/21 08:13:03;;;;;;;;;;;;;;;4.59;66.97;103006.84;6221266;23;1195;-95
2022/03/21 08:15:29;;;;;;;;;;;;;;;4.61;66.94;103007.56;6220251;23;1279;-96
2022/03/21 08:17:56;;;;;;;;;;;;;;;4.59;66.99;103010.38;6220519;23;1195;-96
2022/03/21 08:20:22;;;;;;;;;;;;;;;4.66;67.08;103008.06;6248187;23;980;-95
2022/03/21 08:22:49;;;;;;;;;;;;;;;4.61;66.80;103011.09;6220522;23;1322;-96
2022/03/21 08:25:16;;;;;;;;;;;;;;;4.61;67.00;103004.91;6221976;23;1278;-96
2022/03/21 08:27:43;;;;;;;;;;;;;;;4.63;66.90;103003.81;6219619;23;1209;-96
2022/03/21 08:30:09;;;;;;;;;;;;;;;4.64;66.88;103002.84;6220066;23;1900;-96
2022/03/21 08:32:36;;;;;;;;;;;;;;;4.62;66.95;103002.13;6247895;23;985;-96
2022/03/21 08:35:02;;;;;;;;;;;;;;;4.66;66.80;103005.41;6220056;23;1260;-96
2022/03/21 08:37:29;;;;;;;;;;;;;;;4.65;66.88;103001.03;6221313;23;1299;-96
2022/03/21 08:39:56;;;;;;;;;;;;;;;4.68;66.93;102998.97;6219969;23;1164;-96
2022/03/21 08:42:22;;;;;;;;;;;;;;;4.70;66.92;102998.84;6221103;23;1286;-96
2022/03/21 08:44:49;;;;;;;;;;;;;;;4.73;66.66;103007.44;6220737;23;1266;-96
2022/03/21 08:47:15;;;;;;;;;;;;;;;4.72;66.83;102999.56;6220309;23;1203;-96
2022/03/21 08:49:42;;;;;;;;;;;;;;;4.71;66.75;103000.56;6221824;23;1908;-96
2022/03/21 08:52:08;;;;;;;;;;;;;;;4.72;66.75;102997.75;6220107;23;1282;-96
2022/03/21 08:54:36;;;;;;;;;;;;;;;4.71;67.04;102992.56;6221400;23;1189;-96
2022/03/21 08:57:04;;;;;;;;;;;;;;;4.74;66.66;102993.16;6220308;23;1389;-96
2022/03/21 08:59:31;;;;;;;;;;;;;;;4.74;66.70;102987.81;6220616;23;1255;-96
2022/03/21 09:01:57;;;;;;;;;;;;;;;4.75;66.64;102997.50;6220822;23;1238;-96
2022/03/21 09:04:24;;;;;;;;;;;;;;;4.77;66.78;102987.56;6220170;23;1262;-96
2022/03/21 09:06:51;;;;;;;;;;;;;;;4.80;66.91;102988.31;6221323;23;1279;-96
2022/03/21 09:09:18;;;;;;;;;;;;;;;4.83;66.69;102982.72;6220501;23;1950;-96
2022/03/21 09:11:45;;;;;;;;;;;;;;;4.82;66.70;102987.19;6220461;23;1194;-96
2022/03/21 09:14:12;;;;;;;;;;;;;;;4.81;66.72;102980.16;6220924;23;1259;-96
2022/03/21 09:16:40;;;;;;;;;;;;;;;4.83;66.64;102975.53;6220830;23;1159;-96
2022/03/21 09:19:06;;;;;;;;;;;;;;;4.85;66.84;102978.91;6221411;23;1270;-96
2022/03/21 09:21:33;;;;;;;;;;;;;;;4.87;66.68;102976.13;6219487;23;1171;-96
2022/03/21 09:23:59;;;;;;;;;;;;;;;4.88;66.79;102960.00;6220413;23;1266;-96
2022/03/21 09:26:26;;;;;;;;;;;;;;;4.89;66.80;102969.72;6248182;23;802;-96
2022/03/21 09:28:59;;;;;;;;;;;;;;;4.92;66.65;102968.63;6220156;23;1896;-96
2022/03/21 09:31:26;;;;;;;;;;;;;;;4.90;66.95;102960.72;6221847;23;1213;-96
2022/03/21 09:33:53;;;;;;;;;;;;;;;4.92;66.85;102957.94;6219869;23;1479;-96
2022/03/21 09:36:19;;;;;;;;;;;;;;;4.95;66.88;102960.34;6221248;23;1278;-96
2022/03/21 09:38:46;;;;;;;;;;;;;;;4.96;66.77;102964.72;6222142;23;1420;-96
2022/03/21 09:41:13;;;;;;;;;;;;;;;4.97;66.92;102966.41;6222640;23;1236;-96
2022/03/21 09:43:40;;;;;;;;;;;;;;;5.00;66.64;102959.00;6224152;23;1185;-96
2022/03/21 09:46:07;;;;;;;;;;;;;;;4.99;66.71;102951.09;6222865;23;1343;-96
2022/03/21 09:48:34;;;;;;;;;;;;;;;5.03;66.76;102951.69;6224829;23;1915;-96
2022/03/21 09:51:00;;;;;;;;;;;;;;;5.04;66.73;102950.75;6249519;23;826;-96
2022/03/21 09:53:28;;;;;;;;;;;;;;;5.03;66.89;102947.22;6223049;23;1311;-96
2022/03/21 09:55:55;;;;;;;;;;;;;;;5.04;66.88;102940.06;6224162;23;1156;-96
2022/03/21 09:58:22;;;;;;;;;;;;;;;5.07;66.93;102940.66;6222435;23;1487;-96
2022/03/21 10:00:49;;;;;;;;;;;;;;;5.08;66.87;102939.66;6223969;23;1145;-96
2022/03/21 10:03:15;;;;;;;;;;;;;;;5.09;66.88;102936.03;6222476;23;1171;-96
2022/03/21 10:05:43;;;;;;;;;;;;;;;5.12;66.95;102930.44;6223841;23;1286;-96
2022/03/21 10:08:10;;;;;;;;;;;;;;;5.12;66.90;102930.44;6223913;23;1155;-96
2022/03/21 10:10:36;;;;;;;;;;;;;;;5.16;66.78;102931.03;6223757;23;1980;-96
2022/03/21 10:13:03;;;;;;;;;;;;;;;5.17;67.01;102930.91;6219710;23;1266;-96
2022/03/21 10:15:30;;;;;;;;;;;;;;;5.16;67.05;102931.88;6219479;23;1154;-96
2022/03/21 10:17:57;;;;;;;;;;;;;;;5.17;67.03;102930.06;6220674;23;1431;-96
2022/03/21 10:20:24;;;;;;;;;;;;;;;5.18;67.17;102931.78;6220107;23;1244;-96
2022/03/21 10:22:51;;;;;;;;;;;;;;;5.22;67.13;102928.69;6219524;23;1300;-96
2022/03/21 10:25:20;;;;;;;;;;;;;;;5.23;67.09;102927.75;6221674;23;1362;-96
2022/03/21 10:27:48;;;;;;;;;;;;;;;5.24;66.91;102925.91;6220873;23;1199;-96
2022/03/21 10:30:15;;;;;;;;;;;;;;;5.27;67.04;102928.34;6222805;23;1916;-96
2022/03/21 10:32:43;;;;;;;;;;;;;;;5.28;67.10;102923.84;6222338;23;1341;-96
2022/03/21 10:35:09;;;;;;;;;;;;;;;5.30;67.03;102921.91;6223391;23;1263;-96
2022/03/21 10:37:36;;;;;;;;;;;;;;;5.31;67.25;102912.88;6225620;23;1206;-96
2022/03/21 10:40:03;;;;;;;;;;;;;;;5.34;67.15;102913.47;6223322;23;1369;-96
2022/03/21 10:42:31;;;;;;;;;;;;;;;5.35;66.93;102906.31;6224363;23;1207;-96
2022/03/21 10:45:02;;;;;;;;;;;;;;;5.34;67.18;102905.47;6224738;23;1265;-96
2022/03/21 10:47:29;;;;;;;;;;;;;;;5.37;67.15;102902.53;6224480;23;1509;-96
2022/03/21 10:49:56;;;;;;;;;;;;;;;5.41;67.16;102908.47;6224048;23;1944;-96
2022/03/21 10:52:23;;;;;;;;;;;;;;;5.42;67.14;102908.34;6224186;23;1319;-96
2022/03/21 10:54:50;;;;;;;;;;;;;;;5.43;67.40;102903.84;6226839;23;1239;-96
2022/03/21 10:57:17;;;;;;;;;;;;;;;5.44;67.49;102906.41;6226552;23;1263;-96
2022/03/21 10:59:44;;;;;;;;;;;;;;;5.49;67.11;102910.50;6225538;23;1324;-96
2022/03/21 11:02:13;;;;;;;;;;;;;;;5.49;67.35;102905.16;6227156;23;1370;-96
2022/03/21 11:04:41;;;;;;;;;;;;;;;5.51;67.27;102892.53;6229575;23;1209;-96
2022/03/21 11:07:11;;;;;;;;;;;;;;;5.54;67.24;102897.59;6230308;23;1191;-96
2022/03/21 11:09:38;;;;;;;;;;;;;;;5.55;67.37;102893.94;6227382;23;1948;-96
2022/03/21 11:12:09;;;;;;;;;;;;;;;5.58;67.45;102893.69;6227999;23;1220;-96
2022/03/21 11:14:37;;;;;;;;;;;;;;;5.58;67.43;102891.84;6230135;23;1386;-96
2022/03/21 11:17:07;;;;;;;;;;;;;;;5.59;67.13;102888.22;6232574;23;849;-96
2022/03/21 11:19:36;;;;;;;;;;;;;;;5.63;67.32;102888.81;6233181;23;1323;-96
2022/03/21 11:22:07;;;;;;;;;;;;;;;5.64;67.47;102885.16;6231188;23;1039;-96
2022/03/21 11:24:36;;;;;;;;;;;;;;;5.65;67.57;102884.19;6232919;23;1309;-96
2022/03/21 11:27:05;;;;;;;;;;;;;;;5.68;67.56;102878.56;6230456;23;1384;-96
2022/03/21 11:29:33;;;;;;;;;;;;;;;5.70;67.49;102877.44;6232439;23;1926;-96
2022/03/21 11:32:01;;;;;;;;;;;;;;;5.73;67.48;102879.00;6232809;23;1365;-96
2022/03/21 11:34:30;;;;;;;;;;;;;;;5.75;67.67;102870.88;6233144;23;878;-96
2022/03/21 11:36:58;;;;;;;;;;;;;;;5.77;67.69;102877.78;6233368;23;1480;-96
2022/03/21 11:39:27;;;;;;;;;;;;;;;5.78;67.30;102871.44;6234265;23;1265;-97
2022/03/21 11:42:00;;;;;;;;;;;;;;;5.81;67.55;102865.84;6232983;23;1421;-96
2022/03/21 11:44:33;;;;;;;;;;;;;;;5.83;67.69;102863.88;6234465;23;1297;-96
2022/03/21 11:47:07;;;;;;;;;;;;;;;5.86;67.68;102855.59;6234733;23;1276;-96
2022/03/21 11:52:26;;;;;;;;;;;;;;;5.90;67.72;102858.84;6236216;23;1418;-96
2022/03/21 12:00:30;;;;;;;;;;;;;;;5.98;67.65;102855.53;6235692;23;1329;-96
2022/03/21 12:03:16;;;;;;;;;;;;;;;6.00;67.80;102848.22;6234740;23;1299;-96
2022/03/21 12:05:56;;;;;;;;;;;;;;;6.02;67.71;102846.25;6233544;23;1380;-96
2022/03/21 12:11:15;;;;;;;;;;;;;;;6.07;67.73;102834.19;6231737;23;1915;-96
2022/03/21 12:13:54;;;;;;;;;;;;;;;6.08;67.75;102835.88;6237635;23;1282;-96
2022/03/21 12:19:28;;;;;;;;;;;;;;;6.13;67.97;102828.28;6230201;23;1341;-96
2022/03/21 13:36:08;;;;;;;;;;;;;;;6.90;68.68;102751.75;6175042;23;1309;-96
2022/03/21 13:38:37;;;;;;;;;;;;;;;6.92;68.75;102746.28;6172619;23;1248;-96
2022/03/21 13:41:03;;;;;;;;;;;;;;;6.97;68.57;102739.50;6178476;23;1294;-96
2022/03/21 13:43:30;;;;;;;;;;;;;;;6.99;68.63;102745.53;6182427;23;1184;-96
2022/03/21 13:48:58;;;;;;;;;;;;;;;7.02;68.65;102737.22;6252201;22;1608;-96
2022/03/21 13:51:25;;;;;;;;;;;;;;;7.05;68.92;102741.44;6228206;23;1956;-95
2022/03/21 13:53:55;;;;;;;;;;;;;;;7.05;68.63;102734.25;6228401;23;1171;-96
2022/03/21 13:56:22;;;;;;;;;;;;;;;7.06;68.98;102735.13;6225848;23;1204;-96
2022/03/21 13:58:48;;;;;;;;;;;;;;;7.08;68.78;102729.59;6225578;23;1285;-96
2022/03/21 14:01:26;;;;;;;;;;;;;;;7.11;68.99;102732.81;6231233;23;1340;-96
2022/03/21 14:06:45;;;;;;;;;;;;;;;7.16;69.02;102721.69;6259046;23;1080;-96
2022/03/21 14:09:17;;;;;;;;;;;;;;;7.17;69.19;102720.69;6244854;23;1877;-96
2022/03/21 14:17:15;;;;;;;;;;;;;;;7.26;69.23;102719.81;6245210;23;1432;-96
2022/03/21 14:19:53;;;;;;;;;;;;;;;7.24;69.30;102717.31;6244074;23;1195;-96
2022/03/21 14:22:25;;;;;;;;;;;;;;;7.19;69.19;102721.41;6244407;23;1144;-96
2022/03/21 14:24:57;;;;;;;;;;;;;;;7.18;69.17;102712.53;6245647;23;1239;-96
2022/03/21 14:27:34;;;;;;;;;;;;;;;7.17;69.19;102713.50;6265635;23;1016;-96
2022/03/21 14:30:09;;;;;;;;;;;;;;;7.16;69.70;102722.53;6270488;23;1908;-96
2022/03/21 14:32:39;;;;;;;;;;;;;;;7.17;69.30;102726.88;6241908;23;1683;-96
2022/03/21 14:35:11;;;;;;;;;;;;;;;7.19;69.29;102726.75;6218178;23;1132;-96
2022/03/21 14:37:46;;;;;;;;;;;;;;;7.21;69.72;102727.47;6243912;23;1302;-96
2022/03/21 14:40:18;;;;;;;;;;;;;;;7.23;69.45;102730.84;6243993;23;1333;-96
2022/03/21 14:42:55;;;;;;;;;;;;;;;7.28;69.43;102729.41;6245006;23;1370;-96
2022/03/21 14:45:27;;;;;;;;;;;;;;;7.30;69.80;102726.59;6244217;23;1354;-96
2022/03/21 14:47:56;;;;;;;;;;;;;;;7.34;69.63;102735.19;6264848;23;1369;-96
2022/03/21 14:50:39;;;;;;;;;;;;;;;7.38;69.59;102733.91;6245855;23;1873;-96
2022/03/21 15:12:58;;;;;;;;;;;;;;;7.47;69.61;102722.28;6271259;23;889;-96
2022/03/21 15:18:22;;;;;;;;;;;;;;;7.50;69.97;102719.34;6243985;23;1384;-96
2022/03/21 15:21:10;;;;;;;;;;;;;;;7.52;69.77;102714.66;6238272;23;1159;-96